Terminal Aerodrome Forecast
Issued by NWS

Current Version | Previous Version | Text Only | Print | Product List | Glossary On
Versions: 1 2 3 4 5 6 7 8 9 10 11 12 13
920
FTUS45 KTFX 221138
TAFLWT
TAF
KLWT 221138Z 2212/2312 34009KT P6SM SCT200
     FM230100 04007KT P6SM OVC090 PROB30 2306/2309 4SM -RA OVC035
     FM230900 06007KT 4SM -RASN OVC015=

USA.gov is the U.S. government's official web portal to all federal, state and local government web resources and services.